sensor_id;sensor_type;location;lat;lon;timestamp;P1;durP1;ratioP1;P2;durP2;ratioP2
7835;SDS011;3963;42.658;23.298;2023-06-24T00:02:01;16.40;;;12.60;;
7835;SDS011;3963;42.658;23.298;2023-06-24T00:04:28;19.80;;;13.30;;
7835;SDS011;3963;42.658;23.298;2023-06-24T00:06:55;18.30;;;12.43;;
7835;SDS011;3963;42.658;23.298;2023-06-24T00:09:24;19.30;;;13.57;;
7835;SDS011;3963;42.658;23.298;2023-06-24T00:11:52;16.77;;;12.13;;
7835;SDS011;3963;42.658;23.298;2023-06-24T00:14:19;15.60;;;12.27;;
7835;SDS011;3963;42.658;23.298;2023-06-24T00:16:46;17.47;;;12.70;;
7835;SDS011;3963;42.658;23.298;2023-06-24T00:19:18;18.37;;;12.90;;
7835;SDS011;3963;42.658;23.298;2023-06-24T00:21:46;21.10;;;13.63;;
7835;SDS011;3963;42.658;23.298;2023-06-24T00:24:12;16.67;;;12.57;;
7835;SDS011;3963;42.658;23.298;2023-06-24T00:26:39;15.70;;;12.43;;
7835;SDS011;3963;42.658;23.298;2023-06-24T00:29:06;16.73;;;12.87;;
7835;SDS011;3963;42.658;23.298;2023-06-24T00:31:33;15.93;;;12.97;;
7835;SDS011;3963;42.658;23.298;2023-06-24T00:34:01;17.33;;;12.63;;
7835;SDS011;3963;42.658;23.298;2023-06-24T00:36:29;18.90;;;13.10;;
7835;SDS011;3963;42.658;23.298;2023-06-24T00:38:57;18.03;;;13.13;;
7835;SDS011;3963;42.658;23.298;2023-06-24T00:41:28;16.73;;;13.23;;
7835;SDS011;3963;42.658;23.298;2023-06-24T00:43:55;18.27;;;13.17;;
7835;SDS011;3963;42.658;23.298;2023-06-24T00:46:23;17.47;;;13.07;;
7835;SDS011;3963;42.658;23.298;2023-06-24T00:48:51;19.17;;;13.00;;
7835;SDS011;3963;42.658;23.298;2023-06-24T00:51:18;22.40;;;13.20;;
7835;SDS011;3963;42.658;23.298;2023-06-24T00:53:47;18.53;;;12.87;;
7835;SDS011;3963;42.658;23.298;2023-06-24T00:56:15;18.93;;;13.20;;
7835;SDS011;3963;42.658;23.298;2023-06-24T00:58:44;18.70;;;12.77;;
7835;SDS011;3963;42.658;23.298;2023-06-24T01:01:12;19.57;;;13.47;;
7835;SDS011;3963;42.658;23.298;2023-06-24T01:03:39;18.07;;;13.40;;
7835;SDS011;3963;42.658;23.298;2023-06-24T01:06:07;19.23;;;14.17;;
7835;SDS011;3963;42.658;23.298;2023-06-24T01:08:35;17.83;;;13.43;;
7835;SDS011;3963;42.658;23.298;2023-06-24T01:11:03;17.90;;;13.80;;
7835;SDS011;3963;42.658;23.298;2023-06-24T01:13:30;19.37;;;13.40;;
7835;SDS011;3963;42.658;23.298;2023-06-24T01:15:59;21.90;;;12.90;;
7835;SDS011;3963;42.658;23.298;2023-06-24T01:18:29;16.80;;;12.83;;
7835;SDS011;3963;42.658;23.298;2023-06-24T01:21:03;18.23;;;14.03;;
7835;SDS011;3963;42.658;23.298;2023-06-24T01:23:42;17.77;;;13.73;;
7835;SDS011;3963;42.658;23.298;2023-06-24T01:26:31;20.60;;;13.33;;
7835;SDS011;3963;42.658;23.298;2023-06-24T01:32:10;20.57;;;13.80;;
7835;SDS011;3963;42.658;23.298;2023-06-24T01:34:44;18.33;;;12.97;;
7835;SDS011;3963;42.658;23.298;2023-06-24T01:37:20;20.60;;;13.87;;
7835;SDS011;3963;42.658;23.298;2023-06-24T01:39:52;16.00;;;12.67;;
7835;SDS011;3963;42.658;23.298;2023-06-24T01:42:25;17.90;;;12.77;;
7835;SDS011;3963;42.658;23.298;2023-06-24T01:44:53;17.57;;;14.03;;
7835;SDS011;3963;42.658;23.298;2023-06-24T01:47:23;20.83;;;12.87;;
7835;SDS011;3963;42.658;23.298;2023-06-24T01:49:53;15.23;;;12.67;;
7835;SDS011;3963;42.658;23.298;2023-06-24T01:52:23;18.20;;;12.93;;
7835;SDS011;3963;42.658;23.298;2023-06-24T01:54:52;18.13;;;12.63;;
7835;SDS011;3963;42.658;23.298;2023-06-24T01:57:21;19.77;;;13.80;;
7835;SDS011;3963;42.658;23.298;2023-06-24T01:59:50;15.60;;;12.33;;
7835;SDS011;3963;42.658;23.298;2023-06-24T02:02:21;16.83;;;13.17;;
7835;SDS011;3963;42.658;23.298;2023-06-24T02:04:50;18.40;;;13.80;;
7835;SDS011;3963;42.658;23.298;2023-06-24T02:07:19;18.40;;;13.80;;
7835;SDS011;3963;42.658;23.298;2023-06-24T02:09:47;16.43;;;13.00;;
7835;SDS011;3963;42.658;23.298;2023-06-24T02:12:15;21.37;;;13.97;;
7835;SDS011;3963;42.658;23.298;2023-06-24T02:14:42;17.37;;;12.80;;
7835;SDS011;3963;42.658;23.298;2023-06-24T02:17:10;19.77;;;13.23;;
7835;SDS011;3963;42.658;23.298;2023-06-24T02:19:40;16.47;;;12.10;;
7835;SDS011;3963;42.658;23.298;2023-06-24T02:22:09;18.43;;;13.87;;
7835;SDS011;3963;42.658;23.298;2023-06-24T02:24:36;17.47;;;13.23;;
7835;SDS011;3963;42.658;23.298;2023-06-24T02:27:05;21.63;;;13.13;;
7835;SDS011;3963;42.658;23.298;2023-06-24T02:29:33;17.23;;;13.83;;
7835;SDS011;3963;42.658;23.298;2023-06-24T02:32:02;18.57;;;13.83;;
7835;SDS011;3963;42.658;23.298;2023-06-24T02:34:30;19.17;;;15.00;;
7835;SDS011;3963;42.658;23.298;2023-06-24T02:36:58;19.90;;;14.47;;
7835;SDS011;3963;42.658;23.298;2023-06-24T02:39:25;20.00;;;13.17;;
7835;SDS011;3963;42.658;23.298;2023-06-24T02:41:52;17.53;;;13.47;;
7835;SDS011;3963;42.658;23.298;2023-06-24T02:44:18;18.23;;;13.37;;
7835;SDS011;3963;42.658;23.298;2023-06-24T02:46:45;21.50;;;14.10;;
7835;SDS011;3963;42.658;23.298;2023-06-24T02:49:14;17.07;;;13.30;;
7835;SDS011;3963;42.658;23.298;2023-06-24T02:51:43;19.23;;;13.87;;
7835;SDS011;3963;42.658;23.298;2023-06-24T02:54:12;17.17;;;13.40;;
7835;SDS011;3963;42.658;23.298;2023-06-24T02:56:41;21.17;;;13.70;;
7835;SDS011;3963;42.658;23.298;2023-06-24T02:59:09;17.53;;;13.70;;
7835;SDS011;3963;42.658;23.298;2023-06-24T03:01:36;19.20;;;14.13;;
7835;SDS011;3963;42.658;23.298;2023-06-24T03:04:10;22.37;;;14.37;;
7835;SDS011;3963;42.658;23.298;2023-06-24T03:06:37;18.33;;;13.13;;
7835;SDS011;3963;42.658;23.298;2023-06-24T03:09:04;16.33;;;13.07;;
7835;SDS011;3963;42.658;23.298;2023-06-24T03:11:41;19.83;;;13.77;;
7835;SDS011;3963;42.658;23.298;2023-06-24T03:14:08;17.77;;;14.23;;
7835;SDS011;3963;42.658;23.298;2023-06-24T03:16:35;18.03;;;13.53;;
7835;SDS011;3963;42.658;23.298;2023-06-24T03:19:03;22.03;;;13.80;;
7835;SDS011;3963;42.658;23.298;2023-06-24T03:21:30;17.90;;;13.13;;
7835;SDS011;3963;42.658;23.298;2023-06-24T03:23:57;17.23;;;12.40;;
7835;SDS011;3963;42.658;23.298;2023-06-24T03:26:24;17.33;;;12.77;;
7835;SDS011;3963;42.658;23.298;2023-06-24T03:28:58;16.53;;;12.27;;
7835;SDS011;3963;42.658;23.298;2023-06-24T03:31:25;18.53;;;12.63;;
7835;SDS011;3963;42.658;23.298;2023-06-24T03:33:51;21.00;;;14.33;;
7835;SDS011;3963;42.658;23.298;2023-06-24T03:36:18;18.87;;;14.13;;
7835;SDS011;3963;42.658;23.298;2023-06-24T03:38:45;18.20;;;13.77;;
7835;SDS011;3963;42.658;23.298;2023-06-24T03:41:12;21.30;;;14.97;;
7835;SDS011;3963;42.658;23.298;2023-06-24T03:43:39;18.53;;;14.50;;
7835;SDS011;3963;42.658;23.298;2023-06-24T03:46:08;20.63;;;14.43;;
7835;SDS011;3963;42.658;23.298;2023-06-24T03:48:35;16.73;;;13.13;;
7835;SDS011;3963;42.658;23.298;2023-06-24T03:51:01;19.17;;;14.20;;
7835;SDS011;3963;42.658;23.298;2023-06-24T03:53:28;19.47;;;13.50;;
7835;SDS011;3963;42.658;23.298;2023-06-24T03:55:55;19.03;;;13.83;;
7835;SDS011;3963;42.658;23.298;2023-06-24T03:58:22;21.43;;;15.73;;
7835;SDS011;3963;42.658;23.298;2023-06-24T04:00:49;18.77;;;13.83;;
7835;SDS011;3963;42.658;23.298;2023-06-24T04:03:17;17.13;;;14.53;;
7835;SDS011;3963;42.658;23.298;2023-06-24T04:05:44;20.40;;;14.57;;
7835;SDS011;3963;42.658;23.298;2023-06-24T04:08:11;20.90;;;15.47;;
7835;SDS011;3963;42.658;23.298;2023-06-24T04:10:38;18.83;;;14.60;;
7835;SDS011;3963;42.658;23.298;2023-06-24T04:13:05;17.43;;;15.23;;
7835;SDS011;3963;42.658;23.298;2023-06-24T04:15:31;20.73;;;15.13;;
7835;SDS011;3963;42.658;23.298;2023-06-24T04:17:58;23.30;;;16.27;;
7835;SDS011;3963;42.658;23.298;2023-06-24T04:20:26;23.73;;;16.17;;
7835;SDS011;3963;42.658;23.298;2023-06-24T04:22:53;21.47;;;15.20;;
7835;SDS011;3963;42.658;23.298;2023-06-24T04:25:20;21.47;;;16.20;;
7835;SDS011;3963;42.658;23.298;2023-06-24T04:27:47;21.03;;;15.30;;
7835;SDS011;3963;42.658;23.298;2023-06-24T04:30:14;19.53;;;14.77;;
7835;SDS011;3963;42.658;23.298;2023-06-24T04:32:41;19.03;;;15.67;;
7835;SDS011;3963;42.658;23.298;2023-06-24T04:35:08;20.60;;;16.07;;
7835;SDS011;3963;42.658;23.298;2023-06-24T04:37:36;21.47;;;15.83;;
7835;SDS011;3963;42.658;23.298;2023-06-24T04:40:03;22.17;;;15.67;;
7835;SDS011;3963;42.658;23.298;2023-06-24T04:42:31;18.27;;;14.70;;
7835;SDS011;3963;42.658;23.298;2023-06-24T04:44:58;19.77;;;15.43;;
7835;SDS011;3963;42.658;23.298;2023-06-24T04:47:26;24.13;;;14.63;;
7835;SDS011;3963;42.658;23.298;2023-06-24T04:49:52;23.30;;;15.53;;
7835;SDS011;3963;42.658;23.298;2023-06-24T04:52:19;21.53;;;15.33;;
7835;SDS011;3963;42.658;23.298;2023-06-24T04:54:47;19.13;;;15.20;;
7835;SDS011;3963;42.658;23.298;2023-06-24T04:57:22;20.73;;;14.30;;
7835;SDS011;3963;42.658;23.298;2023-06-24T04:59:50;18.97;;;15.27;;
7835;SDS011;3963;42.658;23.298;2023-06-24T05:02:17;20.13;;;15.07;;
7835;SDS011;3963;42.658;23.298;2023-06-24T05:04:43;21.03;;;14.77;;
7835;SDS011;3963;42.658;23.298;2023-06-24T05:07:10;18.83;;;14.33;;
7835;SDS011;3963;42.658;23.298;2023-06-24T05:09:37;21.93;;;15.37;;
7835;SDS011;3963;42.658;23.298;2023-06-24T05:12:07;19.87;;;15.30;;
7835;SDS011;3963;42.658;23.298;2023-06-24T05:14:35;19.40;;;15.27;;
7835;SDS011;3963;42.658;23.298;2023-06-24T05:17:02;19.17;;;15.07;;
7835;SDS011;3963;42.658;23.298;2023-06-24T05:19:30;25.43;;;15.13;;
7835;SDS011;3963;42.658;23.298;2023-06-24T05:21:57;19.20;;;14.90;;
7835;SDS011;3963;42.658;23.298;2023-06-24T05:24:25;17.37;;;14.37;;
7835;SDS011;3963;42.658;23.298;2023-06-24T05:26:52;19.30;;;14.43;;
7835;SDS011;3963;42.658;23.298;2023-06-24T05:29:20;16.97;;;14.27;;
7835;SDS011;3963;42.658;23.298;2023-06-24T05:31:47;18.93;;;14.20;;
7835;SDS011;3963;42.658;23.298;2023-06-24T05:34:14;17.63;;;14.17;;
7835;SDS011;3963;42.658;23.298;2023-06-24T05:36:41;22.37;;;14.90;;
7835;SDS011;3963;42.658;23.298;2023-06-24T05:39:08;23.90;;;14.57;;
7835;SDS011;3963;42.658;23.298;2023-06-24T05:41:36;19.70;;;15.13;;
7835;SDS011;3963;42.658;23.298;2023-06-24T05:44:03;18.87;;;14.70;;
7835;SDS011;3963;42.658;23.298;2023-06-24T05:46:32;20.33;;;15.23;;
7835;SDS011;3963;42.658;23.298;2023-06-24T05:48:59;19.33;;;14.27;;
7835;SDS011;3963;42.658;23.298;2023-06-24T05:51:28;21.50;;;15.37;;
7835;SDS011;3963;42.658;23.298;2023-06-24T05:53:55;19.03;;;14.83;;
7835;SDS011;3963;42.658;23.298;2023-06-24T05:56:22;19.37;;;14.63;;
7835;SDS011;3963;42.658;23.298;2023-06-24T05:58:49;21.60;;;15.40;;
7835;SDS011;3963;42.658;23.298;2023-06-24T06:01:16;21.23;;;15.53;;
7835;SDS011;3963;42.658;23.298;2023-06-24T06:03:44;20.83;;;14.80;;
7835;SDS011;3963;42.658;23.298;2023-06-24T06:06:11;21.53;;;13.93;;
7835;SDS011;3963;42.658;23.298;2023-06-24T06:08:37;18.30;;;13.30;;
7835;SDS011;3963;42.658;23.298;2023-06-24T06:11:04;16.00;;;12.33;;
7835;SDS011;3963;42.658;23.298;2023-06-24T06:13:31;15.23;;;11.37;;
7835;SDS011;3963;42.658;23.298;2023-06-24T06:15:59;17.93;;;12.43;;
7835;SDS011;3963;42.658;23.298;2023-06-24T06:18:25;16.43;;;11.23;;
7835;SDS011;3963;42.658;23.298;2023-06-24T06:20:54;17.73;;;11.77;;
7835;SDS011;3963;42.658;23.298;2023-06-24T06:23:21;15.03;;;11.70;;
7835;SDS011;3963;42.658;23.298;2023-06-24T06:25:47;14.77;;;11.87;;
7835;SDS011;3963;42.658;23.298;2023-06-24T06:28:14;14.03;;;10.90;;
7835;SDS011;3963;42.658;23.298;2023-06-24T06:30:41;14.57;;;11.60;;
7835;SDS011;3963;42.658;23.298;2023-06-24T06:33:08;18.43;;;12.90;;
7835;SDS011;3963;42.658;23.298;2023-06-24T06:35:34;13.27;;;11.37;;
7835;SDS011;3963;42.658;23.298;2023-06-24T06:38:06;15.10;;;11.10;;
7835;SDS011;3963;42.658;23.298;2023-06-24T06:40:33;14.30;;;11.90;;
7835;SDS011;3963;42.658;23.298;2023-06-24T06:43:00;12.83;;;11.20;;
7835;SDS011;3963;42.658;23.298;2023-06-24T06:45:27;15.00;;;12.10;;
7835;SDS011;3963;42.658;23.298;2023-06-24T06:47:53;14.50;;;12.03;;
7835;SDS011;3963;42.658;23.298;2023-06-24T06:50:20;12.43;;;11.07;;
7835;SDS011;3963;42.658;23.298;2023-06-24T06:52:47;16.80;;;11.77;;
7835;SDS011;3963;42.658;23.298;2023-06-24T06:55:15;14.18;;;11.90;;
7835;SDS011;3963;42.658;23.298;2023-06-24T06:57:42;13.18;;;11.77;;
7835;SDS011;3963;42.658;23.298;2023-06-24T07:00:09;13.70;;;11.52;;
7835;SDS011;3963;42.658;23.298;2023-06-24T07:02:37;16.30;;;12.63;;
7835;SDS011;3963;42.658;23.298;2023-06-24T07:05:04;13.20;;;11.88;;
7835;SDS011;3963;42.658;23.298;2023-06-24T07:07:31;14.73;;;11.50;;
7835;SDS011;3963;42.658;23.298;2023-06-24T07:09:59;18.48;;;12.13;;
7835;SDS011;3963;42.658;23.298;2023-06-24T07:12:27;16.60;;;11.90;;
7835;SDS011;3963;42.658;23.298;2023-06-24T07:14:54;13.50;;;11.60;;
7835;SDS011;3963;42.658;23.298;2023-06-24T07:17:20;15.30;;;11.70;;
7835;SDS011;3963;42.658;23.298;2023-06-24T07:19:47;13.10;;;10.43;;
7835;SDS011;3963;42.658;23.298;2023-06-24T07:22:14;15.88;;;11.40;;
7835;SDS011;3963;42.658;23.298;2023-06-24T07:24:41;13.63;;;11.35;;
7835;SDS011;3963;42.658;23.298;2023-06-24T07:27:08;14.30;;;12.57;;
7835;SDS011;3963;42.658;23.298;2023-06-24T07:29:37;15.90;;;12.68;;
7835;SDS011;3963;42.658;23.298;2023-06-24T07:32:04;16.23;;;11.90;;
7835;SDS011;3963;42.658;23.298;2023-06-24T07:34:32;14.07;;;11.68;;
7835;SDS011;3963;42.658;23.298;2023-06-24T07:36:59;19.17;;;13.23;;
7835;SDS011;3963;42.658;23.298;2023-06-24T07:39:26;16.63;;;11.48;;
7835;SDS011;3963;42.658;23.298;2023-06-24T07:41:53;15.40;;;11.40;;
7835;SDS011;3963;42.658;23.298;2023-06-24T07:44:19;15.70;;;11.77;;
7835;SDS011;3963;42.658;23.298;2023-06-24T07:46:48;16.63;;;12.93;;
7835;SDS011;3963;42.658;23.298;2023-06-24T07:49:16;13.85;;;12.38;;
7835;SDS011;3963;42.658;23.298;2023-06-24T07:51:43;15.60;;;11.40;;
7835;SDS011;3963;42.658;23.298;2023-06-24T07:54:10;15.43;;;12.93;;
7835;SDS011;3963;42.658;23.298;2023-06-24T07:56:37;13.30;;;11.90;;
7835;SDS011;3963;42.658;23.298;2023-06-24T07:59:04;14.07;;;12.57;;
7835;SDS011;3963;42.658;23.298;2023-06-24T08:01:31;13.48;;;12.00;;
7835;SDS011;3963;42.658;23.298;2023-06-24T08:03:59;24.70;;;12.98;;
7835;SDS011;3963;42.658;23.298;2023-06-24T08:06:26;13.88;;;12.45;;
7835;SDS011;3963;42.658;23.298;2023-06-24T08:08:53;12.55;;;11.05;;
7835;SDS011;3963;42.658;23.298;2023-06-24T08:11:20;16.40;;;12.90;;
7835;SDS011;3963;42.658;23.298;2023-06-24T08:13:47;14.90;;;12.90;;
7835;SDS011;3963;42.658;23.298;2023-06-24T08:16:15;17.92;;;12.35;;
7835;SDS011;3963;42.658;23.298;2023-06-24T08:18:43;14.63;;;12.20;;
7835;SDS011;3963;42.658;23.298;2023-06-24T08:21:11;13.60;;;11.10;;
7835;SDS011;3963;42.658;23.298;2023-06-24T08:23:38;16.83;;;12.88;;
7835;SDS011;3963;42.658;23.298;2023-06-24T08:26:06;14.27;;;11.43;;
7835;SDS011;3963;42.658;23.298;2023-06-24T08:28:33;16.05;;;12.07;;
7835;SDS011;3963;42.658;23.298;2023-06-24T08:31:00;17.85;;;11.40;;
7835;SDS011;3963;42.658;23.298;2023-06-24T08:33:26;13.13;;;11.85;;
7835;SDS011;3963;42.658;23.298;2023-06-24T08:35:53;16.23;;;11.88;;
7835;SDS011;3963;42.658;23.298;2023-06-24T08:38:21;19.73;;;12.13;;
7835;SDS011;3963;42.658;23.298;2023-06-24T08:40:48;12.07;;;10.88;;
7835;SDS011;3963;42.658;23.298;2023-06-24T08:43:16;14.40;;;11.07;;
7835;SDS011;3963;42.658;23.298;2023-06-24T08:45:43;14.40;;;11.68;;
7835;SDS011;3963;42.658;23.298;2023-06-24T08:48:10;12.80;;;11.43;;
7835;SDS011;3963;42.658;23.298;2023-06-24T08:50:40;16.85;;;12.15;;
7835;SDS011;3963;42.658;23.298;2023-06-24T08:53:11;16.23;;;12.30;;
7835;SDS011;3963;42.658;23.298;2023-06-24T08:55:43;16.48;;;11.43;;
7835;SDS011;3963;42.658;23.298;2023-06-24T08:58:10;14.57;;;11.40;;
7835;SDS011;3963;42.658;23.298;2023-06-24T09:00:37;17.02;;;11.90;;
7835;SDS011;3963;42.658;23.298;2023-06-24T09:03:04;15.25;;;11.15;;
7835;SDS011;3963;42.658;23.298;2023-06-24T09:05:31;13.43;;;11.98;;
7835;SDS011;3963;42.658;23.298;2023-06-24T09:07:57;15.18;;;11.95;;
7835;SDS011;3963;42.658;23.298;2023-06-24T09:10:30;14.77;;;11.60;;
7835;SDS011;3963;42.658;23.298;2023-06-24T09:12:59;14.55;;;11.57;;
7835;SDS011;3963;42.658;23.298;2023-06-24T09:15:29;15.50;;;11.18;;
7835;SDS011;3963;42.658;23.298;2023-06-24T09:17:57;15.82;;;11.23;;
7835;SDS011;3963;42.658;23.298;2023-06-24T09:20:25;15.07;;;11.60;;
7835;SDS011;3963;42.658;23.298;2023-06-24T09:22:57;12.02;;;10.82;;
7835;SDS011;3963;42.658;23.298;2023-06-24T09:25:25;13.00;;;10.93;;
7835;SDS011;3963;42.658;23.298;2023-06-24T09:27:52;14.25;;;12.20;;
7835;SDS011;3963;42.658;23.298;2023-06-24T09:30:23;14.90;;;11.45;;
7835;SDS011;3963;42.658;23.298;2023-06-24T09:32:50;14.40;;;12.00;;
7835;SDS011;3963;42.658;23.298;2023-06-24T09:35:18;16.17;;;11.90;;
7835;SDS011;3963;42.658;23.298;2023-06-24T09:37:49;11.90;;;10.55;;
7835;SDS011;3963;42.658;23.298;2023-06-24T09:40:16;12.38;;;11.02;;
7835;SDS011;3963;42.658;23.298;2023-06-24T09:42:50;13.20;;;11.57;;
7835;SDS011;3963;42.658;23.298;2023-06-24T09:45:19;14.23;;;11.15;;
7835;SDS011;3963;42.658;23.298;2023-06-24T09:47:50;16.85;;;10.82;;
7835;SDS011;3963;42.658;23.298;2023-06-24T09:50:17;12.57;;;10.70;;
7835;SDS011;3963;42.658;23.298;2023-06-24T09:52:44;12.13;;;10.82;;
7835;SDS011;3963;42.658;23.298;2023-06-24T09:55:12;14.13;;;10.55;;
7835;SDS011;3963;42.658;23.298;2023-06-24T09:57:40;14.60;;;11.25;;
7835;SDS011;3963;42.658;23.298;2023-06-24T10:00:11;11.95;;;9.75;;
7835;SDS011;3963;42.658;23.298;2023-06-24T10:02:42;12.23;;;10.77;;
7835;SDS011;3963;42.658;23.298;2023-06-24T10:05:10;11.98;;;10.10;;
7835;SDS011;3963;42.658;23.298;2023-06-24T10:07:37;11.05;;;10.02;;
7835;SDS011;3963;42.658;23.298;2023-06-24T10:10:06;13.23;;;10.43;;
7835;SDS011;3963;42.658;23.298;2023-06-24T10:12:34;10.45;;;9.38;;
7835;SDS011;3963;42.658;23.298;2023-06-24T10:15:01;13.77;;;9.98;;
7835;SDS011;3963;42.658;23.298;2023-06-24T10:17:29;12.55;;;9.65;;
7835;SDS011;3963;42.658;23.298;2023-06-24T10:19:57;14.98;;;10.73;;
7835;SDS011;3963;42.658;23.298;2023-06-24T10:22:24;11.88;;;10.07;;
7835;SDS011;3963;42.658;23.298;2023-06-24T10:24:53;13.60;;;10.65;;
7835;SDS011;3963;42.658;23.298;2023-06-24T10:27:22;13.68;;;10.73;;
7835;SDS011;3963;42.658;23.298;2023-06-24T10:29:50;12.13;;;9.70;;
7835;SDS011;3963;42.658;23.298;2023-06-24T10:32:17;10.80;;;9.70;;
7835;SDS011;3963;42.658;23.298;2023-06-24T10:34:45;10.88;;;9.23;;
7835;SDS011;3963;42.658;23.298;2023-06-24T10:37:18;13.05;;;10.25;;
7835;SDS011;3963;42.658;23.298;2023-06-24T10:39:46;11.88;;;10.07;;
7835;SDS011;3963;42.658;23.298;2023-06-24T10:42:33;11.27;;;9.43;;
7835;SDS011;3963;42.658;23.298;2023-06-24T10:45:14;11.80;;;10.23;;
7835;SDS011;3963;42.658;23.298;2023-06-24T10:47:42;11.20;;;9.38;;
7835;SDS011;3963;42.658;23.298;2023-06-24T10:50:11;13.10;;;8.90;;
7835;SDS011;3963;42.658;23.298;2023-06-24T10:52:41;12.35;;;9.25;;
7835;SDS011;3963;42.658;23.298;2023-06-24T10:55:09;10.45;;;8.77;;
7835;SDS011;3963;42.658;23.298;2023-06-24T10:57:36;10.27;;;8.65;;
7835;SDS011;3963;42.658;23.298;2023-06-24T11:00:03;10.52;;;8.70;;
7835;SDS011;3963;42.658;23.298;2023-06-24T11:02:33;10.98;;;8.98;;
7835;SDS011;3963;42.658;23.298;2023-06-24T11:05:01;10.20;;;9.15;;
7835;SDS011;3963;42.658;23.298;2023-06-24T11:07:29;19.35;;;11.45;;
7835;SDS011;3963;42.658;23.298;2023-06-24T11:10:02;11.73;;;9.40;;
7835;SDS011;3963;42.658;23.298;2023-06-24T11:12:31;10.98;;;8.40;;
7835;SDS011;3963;42.658;23.298;2023-06-24T11:14:59;11.02;;;8.48;;
7835;SDS011;3963;42.658;23.298;2023-06-24T11:17:27;8.75;;;7.93;;
7835;SDS011;3963;42.658;23.298;2023-06-24T11:19:54;9.18;;;7.90;;
7835;SDS011;3963;42.658;23.298;2023-06-24T11:22:22;11.32;;;8.85;;
7835;SDS011;3963;42.658;23.298;2023-06-24T11:24:50;9.80;;;8.43;;
7835;SDS011;3963;42.658;23.298;2023-06-24T11:27:19;9.15;;;8.20;;
7835;SDS011;3963;42.658;23.298;2023-06-24T11:29:51;10.57;;;8.50;;
7835;SDS011;3963;42.658;23.298;2023-06-24T11:32:18;9.35;;;7.82;;
7835;SDS011;3963;42.658;23.298;2023-06-24T11:34:46;8.35;;;7.32;;
7835;SDS011;3963;42.658;23.298;2023-06-24T11:37:14;10.43;;;8.10;;
7835;SDS011;3963;42.658;23.298;2023-06-24T11:39:42;10.15;;;8.98;;
7835;SDS011;3963;42.658;23.298;2023-06-24T11:42:09;11.25;;;9.38;;
7835;SDS011;3963;42.658;23.298;2023-06-24T11:44:42;13.60;;;10.60;;
7835;SDS011;3963;42.658;23.298;2023-06-24T11:47:09;9.13;;;8.10;;
7835;SDS011;3963;42.658;23.298;2023-06-24T11:49:49;10.63;;;8.68;;
7835;SDS011;3963;42.658;23.298;2023-06-24T11:52:17;9.00;;;7.88;;
7835;SDS011;3963;42.658;23.298;2023-06-24T11:54:44;11.27;;;7.60;;
7835;SDS011;3963;42.658;23.298;2023-06-24T11:57:10;8.65;;;7.57;;
7835;SDS011;3963;42.658;23.298;2023-06-24T11:59:37;8.77;;;7.53;;
7835;SDS011;3963;42.658;23.298;2023-06-24T12:02:06;10.68;;;7.57;;
7835;SDS011;3963;42.658;23.298;2023-06-24T12:04:33;9.52;;;7.35;;
7835;SDS011;3963;42.658;23.298;2023-06-24T12:07:02;8.57;;;7.53;;
7835;SDS011;3963;42.658;23.298;2023-06-24T12:09:29;11.90;;;7.20;;
7835;SDS011;3963;42.658;23.298;2023-06-24T12:11:57;11.00;;;7.85;;
7835;SDS011;3963;42.658;23.298;2023-06-24T12:14:24;11.35;;;8.57;;
7835;SDS011;3963;42.658;23.298;2023-06-24T12:16:51;11.02;;;7.50;;
7835;SDS011;3963;42.658;23.298;2023-06-24T12:19:19;10.27;;;8.05;;
7835;SDS011;3963;42.658;23.298;2023-06-24T12:21:47;8.50;;;7.60;;
7835;SDS011;3963;42.658;23.298;2023-06-24T12:24:13;12.85;;;8.05;;
7835;SDS011;3963;42.658;23.298;2023-06-24T12:26:40;11.57;;;8.43;;
7835;SDS011;3963;42.658;23.298;2023-06-24T12:29:07;10.40;;;7.43;;
7835;SDS011;3963;42.658;23.298;2023-06-24T12:31:34;12.45;;;7.63;;
7835;SDS011;3963;42.658;23.298;2023-06-24T12:34:00;8.68;;;7.80;;
7835;SDS011;3963;42.658;23.298;2023-06-24T12:36:29;9.25;;;7.38;;
7835;SDS011;3963;42.658;23.298;2023-06-24T12:38:56;8.85;;;7.95;;
7835;SDS011;3963;42.658;23.298;2023-06-24T12:41:23;11.07;;;8.07;;
7835;SDS011;3963;42.658;23.298;2023-06-24T12:43:49;9.10;;;7.45;;
7835;SDS011;3963;42.658;23.298;2023-06-24T12:46:16;9.75;;;7.65;;
7835;SDS011;3963;42.658;23.298;2023-06-24T12:48:43;8.30;;;7.50;;
7835;SDS011;3963;42.658;23.298;2023-06-24T12:51:10;9.50;;;7.53;;
7835;SDS011;3963;42.658;23.298;2023-06-24T12:53:39;9.45;;;8.20;;
7835;SDS011;3963;42.658;23.298;2023-06-24T12:56:06;9.55;;;8.55;;
7835;SDS011;3963;42.658;23.298;2023-06-24T12:58:33;9.40;;;8.23;;
7835;SDS011;3963;42.658;23.298;2023-06-24T13:01:00;13.10;;;8.18;;
7835;SDS011;3963;42.658;23.298;2023-06-24T13:03:27;12.63;;;8.27;;
7835;SDS011;3963;42.658;23.298;2023-06-24T13:05:54;8.93;;;8.02;;
7835;SDS011;3963;42.658;23.298;2023-06-24T13:08:20;9.48;;;7.32;;
7835;SDS011;3963;42.658;23.298;2023-06-24T13:10:49;10.10;;;7.78;;
7835;SDS011;3963;42.658;23.298;2023-06-24T13:13:16;12.55;;;7.57;;
7835;SDS011;3963;42.658;23.298;2023-06-24T13:15:42;10.73;;;7.32;;
7835;SDS011;3963;42.658;23.298;2023-06-24T13:18:09;10.00;;;8.13;;
7835;SDS011;3963;42.658;23.298;2023-06-24T13:20:36;10.52;;;8.73;;
7835;SDS011;3963;42.658;23.298;2023-06-24T13:23:03;14.50;;;8.32;;
7835;SDS011;3963;42.658;23.298;2023-06-24T13:25:30;13.63;;;8.95;;
7835;SDS011;3963;42.658;23.298;2023-06-24T13:27:58;11.68;;;9.40;;
7835;SDS011;3963;42.658;23.298;2023-06-24T13:30:25;15.00;;;9.25;;
7835;SDS011;3963;42.658;23.298;2023-06-24T13:32:51;16.67;;;9.70;;
7835;SDS011;3963;42.658;23.298;2023-06-24T13:35:18;18.17;;;10.05;;
7835;SDS011;3963;42.658;23.298;2023-06-24T13:37:45;16.17;;;8.93;;
7835;SDS011;3963;42.658;23.298;2023-06-24T13:40:12;30.27;;;8.57;;
7835;SDS011;3963;42.658;23.298;2023-06-24T13:42:39;18.93;;;7.33;;
7835;SDS011;3963;42.658;23.298;2023-06-24T13:45:07;16.03;;;6.20;;
7835;SDS011;3963;42.658;23.298;2023-06-24T13:47:34;17.73;;;7.40;;
7835;SDS011;3963;42.658;23.298;2023-06-24T13:50:02;11.00;;;6.30;;
7835;SDS011;3963;42.658;23.298;2023-06-24T13:52:29;14.57;;;6.77;;
7835;SDS011;3963;42.658;23.298;2023-06-24T13:54:56;14.47;;;6.77;;
7835;SDS011;3963;42.658;23.298;2023-06-24T13:57:23;13.47;;;7.40;;
7835;SDS011;3963;42.658;23.298;2023-06-24T13:59:50;14.07;;;7.27;;
7835;SDS011;3963;42.658;23.298;2023-06-24T14:02:18;9.43;;;6.13;;
7835;SDS011;3963;42.658;23.298;2023-06-24T14:04:45;18.13;;;7.33;;
7835;SDS011;3963;42.658;23.298;2023-06-24T14:07:13;15.13;;;7.73;;
7835;SDS011;3963;42.658;23.298;2023-06-24T14:09:39;12.17;;;7.13;;
7835;SDS011;3963;42.658;23.298;2023-06-24T14:12:07;22.77;;;7.13;;
7835;SDS011;3963;42.658;23.298;2023-06-24T14:14:35;14.70;;;7.80;;
7835;SDS011;3963;42.658;23.298;2023-06-24T14:17:02;15.23;;;7.37;;
7835;SDS011;3963;42.658;23.298;2023-06-24T14:19:30;14.73;;;7.70;;
7835;SDS011;3963;42.658;23.298;2023-06-24T14:21:57;11.60;;;6.00;;
7835;SDS011;3963;42.658;23.298;2023-06-24T14:24:24;11.63;;;5.97;;
7835;SDS011;3963;42.658;23.298;2023-06-24T14:26:51;14.47;;;6.77;;
7835;SDS011;3963;42.658;23.298;2023-06-24T14:29:18;13.13;;;6.03;;
7835;SDS011;3963;42.658;23.298;2023-06-24T14:31:45;10.70;;;6.17;;
7835;SDS011;3963;42.658;23.298;2023-06-24T14:34:11;8.87;;;5.53;;
7835;SDS011;3963;42.658;23.298;2023-06-24T14:36:39;17.37;;;6.20;;
7835;SDS011;3963;42.658;23.298;2023-06-24T14:39:06;14.00;;;6.00;;
7835;SDS011;3963;42.658;23.298;2023-06-24T14:41:33;18.23;;;6.53;;
7835;SDS011;3963;42.658;23.298;2023-06-24T14:44:00;13.87;;;6.43;;
7835;SDS011;3963;42.658;23.298;2023-06-24T14:46:27;15.90;;;6.97;;